createdAt,value
2022-08-01T00:02:02.164Z,1.17
2022-08-01T00:04:28.992Z,1.07
2022-08-01T00:06:55.719Z,1.13
2022-08-01T00:09:23.922Z,1.13
2022-08-01T00:11:59.969Z,1.30
2022-08-01T00:14:31.917Z,1.47
2022-08-01T00:17:02.592Z,1.50
2022-08-01T00:19:33.716Z,1.30
2022-08-01T00:22:00.450Z,1.37
2022-08-01T00:24:27.151Z,1.07
2022-08-01T00:26:53.876Z,1.13
2022-08-01T00:30:11.029Z,1.30
2022-08-01T00:32:07.876Z,0.90
2022-08-01T00:34:34.985Z,1.40
2022-08-01T00:37:01.679Z,1.20
2022-08-01T00:39:28.449Z,0.93
2022-08-01T00:41:59.441Z,1.07
2022-08-01T00:44:27.356Z,1.23
2022-08-01T00:46:54.179Z,1.07
2022-08-01T00:49:21.061Z,1.40
2022-08-01T00:51:47.813Z,1.40
2022-08-01T00:54:16.681Z,1.20
2022-08-01T00:56:43.901Z,1.20
2022-08-01T00:59:10.605Z,1.20
2022-08-01T01:01:39.592Z,1.10
2022-08-01T01:04:08.318Z,1.20
2022-08-01T01:06:41.397Z,1.30
2022-08-01T01:09:23.291Z,1.20
2022-08-01T01:12:02.939Z,1.37
2022-08-01T01:15:08.132Z,1.50
2022-08-01T01:18:13.577Z,0.93
2022-08-01T01:20:41.695Z,1.10
2022-08-01T01:23:11.493Z,0.80
2022-08-01T01:25:38.173Z,1.40
2022-08-01T01:28:22.201Z,1.10
2022-08-01T01:30:51.789Z,1.30
2022-08-01T01:33:18.586Z,1.10
2022-08-01T01:35:48.611Z,1.30
2022-08-01T01:38:21.376Z,1.30
2022-08-01T01:40:48.811Z,1.10
2022-08-01T01:43:15.837Z,1.23
2022-08-01T01:45:42.628Z,1.20
2022-08-01T01:48:10.337Z,1.20
2022-08-01T01:50:37.148Z,1.33
2022-08-01T01:53:04.222Z,1.17
2022-08-01T01:55:31.051Z,1.47
2022-08-01T01:57:57.778Z,1.20
2022-08-01T02:00:24.582Z,1.33
2022-08-01T02:02:52.723Z,1.23
2022-08-01T02:05:19.525Z,1.20
2022-08-01T02:07:46.340Z,1.23
2022-08-01T02:10:16.277Z,1.40
2022-08-01T02:12:43.412Z,1.20
2022-08-01T02:15:10.491Z,1.20
2022-08-01T02:17:41.095Z,1.87
2022-08-01T02:20:08.375Z,1.40
2022-08-01T02:22:38.089Z,1.30
2022-08-01T02:25:11.281Z,1.40
2022-08-01T02:27:47.083Z,1.33
2022-08-01T02:30:15.095Z,1.37
2022-08-01T02:32:47.626Z,1.20
2022-08-01T02:35:28.632Z,1.33
2022-08-01T02:37:56.270Z,1.40
2022-08-01T02:40:22.995Z,1.53
2022-08-01T02:42:51.284Z,1.10
2022-08-01T02:45:23.283Z,1.47
2022-08-01T02:47:49.995Z,1.30
2022-08-01T02:50:17.668Z,1.50
2022-08-01T02:52:45.244Z,1.50
2022-08-01T02:55:11.941Z,1.30
2022-08-01T02:57:51.301Z,1.30
2022-08-01T03:00:19.461Z,1.07
2022-08-01T03:02:49.319Z,1.60
2022-08-01T03:05:16.023Z,1.87
2022-08-01T03:07:42.825Z,1.50
2022-08-01T03:10:09.812Z,1.43
2022-08-01T03:12:36.656Z,1.53
2022-08-01T03:15:03.968Z,1.60
2022-08-01T03:17:31.134Z,1.50
2022-08-01T03:19:58.782Z,2.00
2022-08-01T03:22:26.994Z,1.27
2022-08-01T03:24:54.229Z,1.77
2022-08-01T03:27:21.918Z,1.50
2022-08-01T03:29:49.282Z,1.50
2022-08-01T03:32:16.291Z,1.20
2022-08-01T03:34:43.585Z,1.50
2022-08-01T03:37:59.898Z,1.50
2022-08-01T03:40:42.247Z,1.20
2022-08-01T03:43:16.893Z,1.50
2022-08-01T03:45:46.977Z,1.20
2022-08-01T03:48:15.308Z,1.23
2022-08-01T03:50:43.868Z,1.33
2022-08-01T03:53:11.005Z,1.13
2022-08-01T03:55:38.828Z,1.57
2022-08-01T03:58:09.629Z,1.80
2022-08-01T04:00:39.633Z,1.40
2022-08-01T04:03:09.924Z,1.57
2022-08-01T04:05:36.788Z,1.53
2022-08-01T04:08:03.781Z,1.40
2022-08-01T04:10:30.575Z,1.37
2022-08-01T04:12:57.395Z,1.20
2022-08-01T04:15:24.861Z,1.50
2022-08-01T04:17:51.628Z,1.63
2022-08-01T04:20:18.592Z,1.30
2022-08-01T04:22:45.344Z,1.30
2022-08-01T04:25:34.668Z,1.20
2022-08-01T04:28:02.074Z,1.70
2022-08-01T04:30:30.759Z,2.10
2022-08-01T04:32:58.950Z,1.50
2022-08-01T04:36:02.269Z,1.60
2022-08-01T04:38:14.163Z,1.17
2022-08-01T04:40:43.878Z,1.80
2022-08-01T04:43:10.577Z,1.50
2022-08-01T04:45:37.587Z,1.40
2022-08-01T04:48:07.546Z,1.80
2022-08-01T04:50:34.330Z,1.40
2022-08-01T04:53:04.117Z,1.23
2022-08-01T04:55:32.325Z,1.70
2022-08-01T04:57:59.063Z,1.40
2022-08-01T05:00:27.109Z,1.60
2022-08-01T05:02:53.867Z,2.10
2022-08-01T05:05:21.932Z,1.60
2022-08-01T05:07:48.755Z,1.73
2022-08-01T05:10:15.512Z,1.30
2022-08-01T05:12:42.224Z,1.60
2022-08-01T05:15:14.728Z,1.30
2022-08-01T05:17:43.454Z,1.47
2022-08-01T05:20:11.297Z,1.57
2022-08-01T05:22:38.395Z,1.43
2022-08-01T05:25:09.112Z,1.57
2022-08-01T05:27:41.527Z,1.90
2022-08-01T05:30:09.433Z,1.50
2022-08-01T05:32:36.536Z,1.67
2022-08-01T05:35:03.630Z,1.47
2022-08-01T05:37:30.363Z,1.60
2022-08-01T05:39:57.119Z,1.20
2022-08-01T05:42:23.841Z,1.10
2022-08-01T05:44:51.726Z,1.20
2022-08-01T05:47:18.661Z,1.40
2022-08-01T05:49:46.268Z,1.60
2022-08-01T05:52:13.034Z,1.70
2022-08-01T05:54:39.852Z,1.20
2022-08-01T05:57:07.517Z,1.40
2022-08-01T05:59:34.312Z,1.40
2022-08-01T06:02:01.653Z,1.83
2022-08-01T06:04:28.585Z,2.20
2022-08-01T06:06:55.332Z,1.87
2022-08-01T06:09:22.169Z,1.67
2022-08-01T06:11:49.024Z,1.70
2022-08-01T06:14:15.788Z,1.90
2022-08-01T06:16:42.494Z,1.63
2022-08-01T06:19:09.294Z,1.63
2022-08-01T06:21:36.009Z,1.70
2022-08-01T06:24:02.785Z,1.60
2022-08-01T06:26:29.546Z,1.50
2022-08-01T06:28:56.280Z,1.70
2022-08-01T06:31:22.994Z,1.57
2022-08-01T06:33:49.775Z,1.83
2022-08-01T06:36:16.558Z,1.73
2022-08-01T06:38:43.307Z,1.63
2022-08-01T06:41:10.047Z,1.60
2022-08-01T06:43:36.865Z,1.73
2022-08-01T06:46:03.578Z,1.67
2022-08-01T06:48:30.456Z,1.13
2022-08-01T06:51:09.353Z,1.40
2022-08-01T06:53:36.957Z,1.33
2022-08-01T06:56:04.121Z,1.87
2022-08-01T06:58:31.843Z,1.70
2022-08-01T07:00:58.774Z,1.40
2022-08-01T07:03:26.524Z,1.13
2022-08-01T07:06:13.274Z,1.13
2022-08-01T07:08:41.794Z,1.00
2022-08-01T07:11:08.644Z,1.17
2022-08-01T07:13:36.695Z,1.17
2022-08-01T07:16:10.976Z,1.10
2022-08-01T07:18:37.757Z,0.97
2022-08-01T07:21:04.876Z,1.13
2022-08-01T07:23:34.024Z,0.83
2022-08-01T07:26:04.544Z,1.20
2022-08-01T07:28:31.729Z,1.20
2022-08-01T07:30:58.461Z,1.50
2022-08-01T07:33:25.316Z,1.30
2022-08-01T07:35:52.094Z,1.23
2022-08-01T07:38:18.816Z,1.27
2022-08-01T07:40:45.723Z,1.50
2022-08-01T07:43:12.463Z,1.10
2022-08-01T07:45:39.184Z,0.93
2022-08-01T07:48:13.395Z,1.10
2022-08-01T07:50:40.144Z,0.80
2022-08-01T07:53:06.935Z,1.00
2022-08-01T07:55:33.756Z,1.10
2022-08-01T07:58:00.476Z,0.90
2022-08-01T08:00:28.505Z,0.70
2022-08-01T08:02:55.357Z,0.70
2022-08-01T08:05:51.299Z,1.00
2022-08-01T08:08:09.303Z,0.60
2022-08-01T08:10:36.184Z,0.70
2022-08-01T08:13:02.953Z,1.10
2022-08-01T08:15:29.969Z,1.10
2022-08-01T08:17:56.705Z,0.93
2022-08-01T08:20:25.911Z,0.90
2022-08-01T08:22:52.958Z,0.80
2022-08-01T08:25:22.969Z,0.80
2022-08-01T08:27:53.736Z,0.90
2022-08-01T08:30:20.530Z,0.90
2022-08-01T08:32:48.912Z,0.70
2022-08-01T08:35:20.076Z,0.90
2022-08-01T08:38:02.373Z,1.00
2022-08-01T08:40:30.949Z,0.87
2022-08-01T08:42:59.809Z,0.90
2022-08-01T08:45:44.542Z,0.87
2022-08-01T08:48:14.319Z,0.77
2022-08-01T08:50:42.503Z,0.70
2022-08-01T08:53:10.036Z,1.00
2022-08-01T08:55:55.558Z,1.17
2022-08-01T08:58:26.366Z,0.77
2022-08-01T09:00:58.221Z,0.70
2022-08-01T09:03:25.170Z,1.13
2022-08-01T09:05:51.970Z,0.70
2022-08-01T09:08:18.747Z,0.80
2022-08-01T09:10:45.503Z,0.70
2022-08-01T09:13:13.936Z,0.90
2022-08-01T09:15:45.178Z,0.63
2022-08-01T09:18:33.165Z,0.60
2022-08-01T09:21:17.215Z,0.90
2022-08-01T09:23:57.717Z,0.90
2022-08-01T09:26:36.462Z,0.73
2022-08-01T09:29:05.605Z,1.03
2022-08-01T09:31:47.653Z,0.80
2022-08-01T09:34:15.553Z,0.90
2022-08-01T09:36:56.831Z,0.70
2022-08-01T09:39:46.153Z,0.67
2022-08-01T09:42:29.195Z,0.90
2022-08-01T09:44:56.803Z,1.03
2022-08-01T09:47:25.507Z,0.60
2022-08-01T09:49:57.336Z,0.70
2022-08-01T09:52:29.217Z,0.80
2022-08-01T09:55:04.315Z,0.80
2022-08-01T09:57:31.899Z,0.80
2022-08-01T10:00:01.066Z,0.90
2022-08-01T10:02:28.442Z,0.70
2022-08-01T10:04:59.964Z,1.07
2022-08-01T10:07:43.166Z,0.90
2022-08-01T10:10:15.428Z,0.73
2022-08-01T10:12:45.822Z,1.00
2022-08-01T10:15:18.296Z,0.80
2022-08-01T10:17:52.498Z,0.70
2022-08-01T10:20:30.484Z,0.67
2022-08-01T10:23:05.758Z,0.77
2022-08-01T10:25:42.803Z,0.60
2022-08-01T10:28:21.696Z,0.87
2022-08-01T10:30:52.144Z,0.60
2022-08-01T10:33:50.352Z,0.90
2022-08-01T10:36:09.709Z,0.50
2022-08-01T10:38:37.364Z,0.63
2022-08-01T10:41:06.376Z,0.63
2022-08-01T10:43:35.465Z,0.70
2022-08-01T10:46:02.891Z,0.50
2022-08-01T10:48:37.368Z,0.50
2022-08-01T10:51:05.372Z,0.73
2022-08-01T10:53:54.378Z,0.40
2022-08-01T10:56:26.930Z,0.67
2022-08-01T10:59:06.171Z,0.50
2022-08-01T11:01:37.551Z,0.60
2022-08-01T11:04:15.548Z,0.40
2022-08-01T11:07:03.020Z,0.50
2022-08-01T11:09:40.309Z,0.67
2022-08-01T11:12:13.696Z,0.63
2022-08-01T11:14:59.689Z,0.40
2022-08-01T11:17:41.826Z,0.43
2022-08-01T11:20:23.579Z,0.50
2022-08-01T11:23:03.552Z,0.60
2022-08-01T11:26:05.760Z,0.43
2022-08-01T11:28:36.973Z,0.50
2022-08-01T11:31:11.581Z,0.60
2022-08-01T11:33:45.760Z,0.50
2022-08-01T11:36:14.381Z,0.50
2022-08-01T11:38:46.070Z,0.50
2022-08-01T11:41:38.387Z,0.57
2022-08-01T11:44:20.757Z,0.40
2022-08-01T11:47:09.785Z,0.30
2022-08-01T11:49:48.969Z,0.37
2022-08-01T11:52:24.373Z,0.60
2022-08-01T11:54:59.334Z,0.50
2022-08-01T11:57:34.743Z,0.40
2022-08-01T12:00:16.458Z,0.47
2022-08-01T12:02:44.042Z,0.50
2022-08-01T12:05:14.377Z,0.50
2022-08-01T12:07:44.279Z,0.60
2022-08-01T12:10:16.254Z,0.70
2022-08-01T12:12:51.171Z,0.83
2022-08-01T12:15:18.362Z,0.70
2022-08-01T12:17:47.166Z,0.80
2022-08-01T12:20:35.512Z,0.53
2022-08-01T12:23:04.068Z,0.70
2022-08-01T12:25:30.906Z,0.70
2022-08-01T12:28:01.154Z,0.73
2022-08-01T12:30:28.083Z,0.57
2022-08-01T12:32:55.042Z,0.60
2022-08-01T12:35:26.543Z,0.57
2022-08-01T12:37:56.540Z,0.60
2022-08-01T12:40:27.786Z,0.40
2022-08-01T12:43:04.836Z,0.50
2022-08-01T12:45:57.057Z,0.57
2022-08-01T12:48:24.661Z,0.53
2022-08-01T12:50:51.808Z,0.40
2022-08-01T12:53:21.679Z,0.40
2022-08-01T12:55:58.261Z,0.70
2022-08-01T12:58:31.751Z,0.80
2022-08-01T13:01:09.539Z,0.50
2022-08-01T13:03:36.364Z,0.63
2022-08-01T13:06:07.305Z,0.80
2022-08-01T13:08:34.855Z,0.63
2022-08-01T13:11:07.197Z,0.77
2022-08-01T13:13:41.668Z,0.80
2022-08-01T13:16:16.261Z,0.50
2022-08-01T13:18:57.310Z,0.63
2022-08-01T13:21:28.497Z,0.83
2022-08-01T13:24:11.934Z,0.67
2022-08-01T13:26:49.752Z,0.47
2022-08-01T13:29:18.218Z,0.37
2022-08-01T13:31:45.126Z,0.57
2022-08-01T13:34:11.992Z,0.50
2022-08-01T13:36:38.884Z,0.60
2022-08-01T13:39:24.115Z,0.70
2022-08-01T13:41:51.125Z,0.70
2022-08-01T13:44:17.890Z,0.80
2022-08-01T13:46:49.648Z,0.60
2022-08-01T13:49:19.042Z,0.60
2022-08-01T13:51:47.408Z,0.70
2022-08-01T13:54:14.409Z,1.10
2022-08-01T13:56:41.175Z,0.63
2022-08-01T13:59:07.953Z,0.70
2022-08-01T14:01:35.275Z,0.60
2022-08-01T14:04:02.436Z,0.57
2022-08-01T14:06:29.243Z,0.77
2022-08-01T14:08:56.014Z,1.00
2022-08-01T14:11:23.408Z,0.77
2022-08-01T14:13:50.193Z,0.67
2022-08-01T14:16:17.840Z,0.70
2022-08-01T14:18:44.612Z,0.80
2022-08-01T14:21:11.587Z,1.17
2022-08-01T14:23:38.461Z,1.30
2022-08-01T14:26:11.473Z,1.03
2022-08-01T14:28:39.293Z,1.17
2022-08-01T14:31:09.373Z,0.93
2022-08-01T14:33:36.160Z,1.10
2022-08-01T14:36:28.536Z,1.20
2022-08-01T14:38:50.255Z,1.73
2022-08-01T14:41:17.064Z,0.90
2022-08-01T14:43:43.901Z,0.87
2022-08-01T14:46:11.077Z,0.60
2022-08-01T14:48:38.005Z,1.10
2022-08-01T14:51:05.285Z,1.17
2022-08-01T14:53:34.238Z,0.90
2022-08-01T14:56:05.559Z,0.83
2022-08-01T14:58:32.551Z,1.00
2022-08-01T15:00:59.699Z,1.00
2022-08-01T15:03:26.745Z,1.10
2022-08-01T15:05:53.464Z,1.00
2022-08-01T15:08:20.215Z,0.60
2022-08-01T15:10:47.223Z,0.70
2022-08-01T15:13:13.960Z,0.70
2022-08-01T15:15:40.686Z,0.80
2022-08-01T15:18:07.418Z,0.60
2022-08-01T15:20:34.191Z,0.47
2022-08-01T15:23:00.963Z,0.80
2022-08-01T15:25:41.295Z,0.70
2022-08-01T15:28:10.383Z,0.57
2022-08-01T15:30:37.200Z,0.70
2022-08-01T15:33:04.032Z,0.70
2022-08-01T15:35:30.826Z,0.77
2022-08-01T15:37:57.638Z,0.43
2022-08-01T15:40:24.556Z,0.60
2022-08-01T15:42:51.457Z,0.60
2022-08-01T15:45:45.910Z,0.80
2022-08-01T15:48:06.877Z,0.70
2022-08-01T15:50:33.665Z,0.60
2022-08-01T15:53:00.400Z,0.73
2022-08-01T15:55:27.629Z,0.63
2022-08-01T15:57:54.424Z,0.90
2022-08-01T16:00:21.181Z,0.73
2022-08-01T16:02:47.924Z,1.10
2022-08-01T16:05:20.331Z,0.63
2022-08-01T16:07:59.695Z,0.47
2022-08-01T16:10:29.346Z,0.67
2022-08-01T16:12:56.056Z,0.90
2022-08-01T16:15:22.815Z,0.90
2022-08-01T16:18:02.969Z,0.80
2022-08-01T16:20:29.982Z,0.77
2022-08-01T16:22:56.712Z,0.63
2022-08-01T16:25:23.473Z,0.93
2022-08-01T16:27:50.280Z,0.70
2022-08-01T16:30:17.050Z,0.80
2022-08-01T16:32:47.508Z,0.80
2022-08-01T16:35:18.716Z,1.40
2022-08-01T16:37:45.457Z,0.90
2022-08-01T16:40:12.439Z,1.00
2022-08-01T16:42:39.174Z,1.13
2022-08-01T16:45:08.739Z,1.03
2022-08-01T16:47:40.411Z,0.83
2022-08-01T16:50:09.484Z,1.23
2022-08-01T16:52:42.218Z,1.03
2022-08-01T16:55:10.938Z,0.87
2022-08-01T16:57:38.452Z,0.80
2022-08-01T17:00:21.195Z,0.90
2022-08-01T17:02:49.534Z,0.87
2022-08-01T17:05:16.418Z,1.13
2022-08-01T17:07:43.121Z,0.80
2022-08-01T17:10:10.151Z,0.60
2022-08-01T17:12:36.967Z,0.80
2022-08-01T17:15:04.289Z,0.83
2022-08-01T17:17:30.985Z,0.83
2022-08-01T17:19:57.728Z,0.60
2022-08-01T17:22:24.462Z,0.87
2022-08-01T17:24:52.087Z,0.60
2022-08-01T17:27:19.369Z,0.50
2022-08-01T17:29:46.248Z,0.93
2022-08-01T17:32:13.418Z,0.50
2022-08-01T17:34:41.384Z,0.87
2022-08-01T17:37:08.729Z,0.80
2022-08-01T17:39:39.278Z,0.60
2022-08-01T17:42:10.859Z,0.80
2022-08-01T17:44:37.900Z,0.90
2022-08-01T17:47:05.741Z,0.70
2022-08-01T17:49:53.839Z,0.70
2022-08-01T17:52:19.988Z,0.93
2022-08-01T17:54:47.549Z,0.73
2022-08-01T17:57:14.270Z,0.70
2022-08-01T17:59:40.952Z,0.90
2022-08-01T18:02:07.677Z,0.87
2022-08-01T18:04:35.858Z,0.80
2022-08-01T18:07:10.976Z,0.77
2022-08-01T18:09:42.459Z,0.60
2022-08-01T18:12:13.153Z,0.90
2022-08-01T18:14:41.182Z,0.80
2022-08-01T18:17:11.454Z,0.60
2022-08-01T18:19:39.083Z,0.80
2022-08-01T18:22:05.912Z,0.70
2022-08-01T18:24:52.486Z,0.77
2022-08-01T18:27:19.230Z,0.87
2022-08-01T18:29:47.458Z,0.93
2022-08-01T18:32:15.182Z,0.80
2022-08-01T18:34:41.909Z,0.50
2022-08-01T18:37:10.176Z,0.80
2022-08-01T18:39:39.637Z,0.60
2022-08-01T18:42:06.491Z,0.80
2022-08-01T18:44:33.256Z,0.83
2022-08-01T18:46:59.992Z,1.17
2022-08-01T18:49:26.775Z,0.90
2022-08-01T18:51:54.260Z,0.90
2022-08-01T18:54:21.092Z,1.00
2022-08-01T18:56:47.784Z,1.07
2022-08-01T18:59:14.589Z,0.73
2022-08-01T19:01:41.433Z,0.97
2022-08-01T19:04:08.512Z,0.80
2022-08-01T19:06:35.487Z,1.07
2022-08-01T19:09:03.493Z,1.00
2022-08-01T19:11:33.648Z,1.00
2022-08-01T19:14:00.565Z,0.70
2022-08-01T19:16:27.864Z,1.00
2022-08-01T19:18:54.692Z,1.07
2022-08-01T19:21:22.372Z,0.90
2022-08-01T19:24:07.533Z,1.10
2022-08-01T19:26:34.604Z,1.10
2022-08-01T19:29:03.177Z,1.20
2022-08-01T19:31:30.034Z,1.10
2022-08-01T19:33:57.397Z,1.20
2022-08-01T19:36:24.118Z,1.20
2022-08-01T19:38:50.893Z,1.03
2022-08-01T19:41:18.150Z,1.30
2022-08-01T19:43:46.782Z,1.20
2022-08-01T19:46:17.814Z,0.77
2022-08-01T19:48:48.508Z,1.00
2022-08-01T19:51:16.957Z,1.00
2022-08-01T19:53:44.917Z,1.00
2022-08-01T19:56:11.675Z,1.23
2022-08-01T19:58:39.997Z,1.20
2022-08-01T20:01:10.888Z,1.40
2022-08-01T20:03:37.773Z,1.10
2022-08-01T20:06:05.156Z,0.77
2022-08-01T20:08:32.420Z,1.23
2022-08-01T20:11:04.347Z,0.90
2022-08-01T20:13:39.439Z,0.90
2022-08-01T20:16:06.326Z,0.87
2022-08-01T20:18:33.042Z,1.00
2022-08-01T20:20:59.802Z,1.07
2022-08-01T20:23:27.321Z,1.13
2022-08-01T20:25:58.278Z,1.30
2022-08-01T20:28:27.905Z,1.40
2022-08-01T20:31:04.998Z,0.90
2022-08-01T20:33:32.731Z,0.70
2022-08-01T20:36:00.857Z,0.50
2022-08-01T20:38:29.147Z,0.70
2022-08-01T20:40:59.676Z,0.47
2022-08-01T20:43:27.602Z,0.40
2022-08-01T20:45:54.520Z,0.40
2022-08-01T20:48:21.361Z,0.73
2022-08-01T20:51:07.452Z,0.30
2022-08-01T20:53:36.998Z,0.40
2022-08-01T20:56:06.859Z,0.43
2022-08-01T20:58:44.085Z,0.30
2022-08-01T21:01:11.725Z,0.20
2022-08-01T21:03:49.113Z,0.30
2022-08-01T21:06:16.636Z,0.40
2022-08-01T21:08:45.339Z,0.27
2022-08-01T21:11:15.987Z,0.40
2022-08-01T21:13:45.688Z,0.30
2022-08-01T21:16:24.301Z,0.40
2022-08-01T21:19:18.021Z,0.53
2022-08-01T21:21:45.113Z,0.37
2022-08-01T21:24:18.782Z,0.50
2022-08-01T21:26:46.141Z,0.60
2022-08-01T21:29:13.153Z,0.50
2022-08-01T21:31:41.313Z,0.47
2022-08-01T21:34:09.862Z,0.50
2022-08-01T21:36:36.706Z,0.50
2022-08-01T21:39:05.100Z,0.40
2022-08-01T21:42:01.443Z,0.40
2022-08-01T21:44:18.775Z,0.40
2022-08-01T21:46:47.133Z,0.40
2022-08-01T21:49:13.889Z,0.50
2022-08-01T21:51:51.598Z,0.30
2022-08-01T21:54:21.751Z,0.40
2022-08-01T21:56:55.262Z,0.47
2022-08-01T21:59:43.029Z,0.47
2022-08-01T22:02:14.455Z,0.43
2022-08-01T22:05:04.010Z,0.50
2022-08-01T22:07:42.176Z,0.40
2022-08-01T22:10:09.097Z,0.50
2022-08-01T22:12:38.456Z,0.57
2022-08-01T22:15:06.325Z,0.40
2022-08-01T22:17:33.439Z,0.50
2022-08-01T22:20:00.335Z,0.30
2022-08-01T22:22:50.484Z,0.43
2022-08-01T22:25:14.851Z,0.37
2022-08-01T22:28:08.737Z,0.40
2022-08-01T22:30:31.183Z,0.40
2022-08-01T22:33:08.089Z,0.30
2022-08-01T22:35:51.262Z,0.60
2022-08-01T22:38:19.224Z,0.50
2022-08-01T22:40:50.119Z,0.30
2022-08-01T22:43:28.907Z,0.40
2022-08-01T22:46:32.918Z,0.40
2022-08-01T22:49:00.788Z,0.30
2022-08-01T22:51:54.435Z,0.30
2022-08-01T22:54:27.875Z,0.50
2022-08-01T22:56:55.724Z,0.30
2022-08-01T22:59:42.949Z,0.40
2022-08-01T23:02:10.200Z,0.33
2022-08-01T23:04:42.592Z,0.40
2022-08-01T23:07:09.309Z,0.43
2022-08-01T23:09:39.324Z,0.60
2022-08-01T23:12:21.889Z,0.20
2022-08-01T23:14:48.589Z,0.50
2022-08-01T23:17:27.527Z,0.40
2022-08-01T23:20:01.969Z,0.50
2022-08-01T23:22:31.567Z,0.33
2022-08-01T23:25:04.756Z,0.40
2022-08-01T23:28:04.600Z,0.80
2022-08-01T23:30:28.972Z,0.30
2022-08-01T23:32:56.105Z,0.33
2022-08-01T23:35:22.963Z,0.40
2022-08-01T23:37:51.197Z,0.50
2022-08-01T23:40:18.787Z,0.47
2022-08-01T23:42:45.689Z,0.60
2022-08-01T23:45:12.492Z,0.50
2022-08-01T23:47:39.250Z,0.50
2022-08-01T23:50:07.756Z,0.53
2022-08-01T23:52:34.621Z,0.60
2022-08-01T23:55:14.887Z,0.50
2022-08-01T23:57:41.994Z,0.53
